sensor_id;sensor_type;location;lat;lon;timestamp;P1;durP1;ratioP1;P2;durP2;ratioP2
8490;SDS011;4282;49.986;7.938;2023-03-12T00:01:14;6.57;;;3.40;;
8490;SDS011;4282;49.986;7.938;2023-03-12T00:03:44;6.70;;;3.57;;
8490;SDS011;4282;49.986;7.938;2023-03-12T00:06:12;4.20;;;3.53;;
8490;SDS011;4282;49.986;7.938;2023-03-12T00:08:41;4.80;;;3.57;;
8490;SDS011;4282;49.986;7.938;2023-03-12T00:11:09;5.10;;;3.80;;
8490;SDS011;4282;49.986;7.938;2023-03-12T00:13:39;5.73;;;4.23;;
8490;SDS011;4282;49.986;7.938;2023-03-12T00:16:08;5.43;;;3.80;;
8490;SDS011;4282;49.986;7.938;2023-03-12T00:18:41;8.30;;;4.10;;
8490;SDS011;4282;49.986;7.938;2023-03-12T00:21:09;5.63;;;4.70;;
8490;SDS011;4282;49.986;7.938;2023-03-12T00:23:38;6.17;;;3.70;;
8490;SDS011;4282;49.986;7.938;2023-03-12T00:26:06;6.20;;;3.97;;
8490;SDS011;4282;49.986;7.938;2023-03-12T00:28:36;6.00;;;3.57;;
8490;SDS011;4282;49.986;7.938;2023-03-12T00:31:12;5.93;;;3.13;;
8490;SDS011;4282;49.986;7.938;2023-03-12T00:33:43;5.17;;;3.33;;
8490;SDS011;4282;49.986;7.938;2023-03-12T00:36:13;6.67;;;3.63;;
8490;SDS011;4282;49.986;7.938;2023-03-12T00:38:41;6.63;;;3.90;;
8490;SDS011;4282;49.986;7.938;2023-03-12T00:41:10;4.50;;;3.40;;
8490;SDS011;4282;49.986;7.938;2023-03-12T00:43:41;5.23;;;3.77;;
8490;SDS011;4282;49.986;7.938;2023-03-12T00:46:09;8.37;;;5.13;;
8490;SDS011;4282;49.986;7.938;2023-03-12T00:48:37;5.13;;;3.87;;
8490;SDS011;4282;49.986;7.938;2023-03-12T00:51:09;6.10;;;3.87;;
8490;SDS011;4282;49.986;7.938;2023-03-12T00:53:37;4.03;;;3.33;;
8490;SDS011;4282;49.986;7.938;2023-03-12T00:56:06;4.27;;;3.20;;
8490;SDS011;4282;49.986;7.938;2023-03-12T00:58:34;3.43;;;3.13;;
8490;SDS011;4282;49.986;7.938;2023-03-12T01:01:03;5.57;;;3.60;;
8490;SDS011;4282;49.986;7.938;2023-03-12T01:03:32;6.03;;;3.33;;
8490;SDS011;4282;49.986;7.938;2023-03-12T01:06:00;4.90;;;3.47;;
8490;SDS011;4282;49.986;7.938;2023-03-12T01:08:31;9.93;;;4.83;;
8490;SDS011;4282;49.986;7.938;2023-03-12T01:11:00;5.63;;;3.13;;
8490;SDS011;4282;49.986;7.938;2023-03-12T01:13:28;5.13;;;3.73;;
8490;SDS011;4282;49.986;7.938;2023-03-12T01:15:56;4.40;;;3.77;;
8490;SDS011;4282;49.986;7.938;2023-03-12T01:18:25;7.27;;;3.40;;
8490;SDS011;4282;49.986;7.938;2023-03-12T01:20:53;4.60;;;2.90;;
8490;SDS011;4282;49.986;7.938;2023-03-12T01:23:22;4.67;;;2.87;;
8490;SDS011;4282;49.986;7.938;2023-03-12T01:25:53;3.90;;;3.00;;
8490;SDS011;4282;49.986;7.938;2023-03-12T01:28:21;6.13;;;3.47;;
8490;SDS011;4282;49.986;7.938;2023-03-12T01:30:49;4.93;;;3.37;;
8490;SDS011;4282;49.986;7.938;2023-03-12T01:33:17;5.20;;;3.47;;
8490;SDS011;4282;49.986;7.938;2023-03-12T01:35:47;4.90;;;3.87;;
8490;SDS011;4282;49.986;7.938;2023-03-12T01:38:15;8.40;;;3.60;;
8490;SDS011;4282;49.986;7.938;2023-03-12T01:40:44;5.43;;;3.40;;
8490;SDS011;4282;49.986;7.938;2023-03-12T01:43:27;6.83;;;3.60;;
8490;SDS011;4282;49.986;7.938;2023-03-12T01:46:04;9.87;;;3.70;;
8490;SDS011;4282;49.986;7.938;2023-03-12T01:48:49;4.73;;;3.17;;
8490;SDS011;4282;49.986;7.938;2023-03-12T01:51:20;4.40;;;3.17;;
8490;SDS011;4282;49.986;7.938;2023-03-12T01:53:49;5.60;;;2.57;;
8490;SDS011;4282;49.986;7.938;2023-03-12T01:56:18;6.50;;;3.20;;
8490;SDS011;4282;49.986;7.938;2023-03-12T01:58:52;2.83;;;2.53;;
8490;SDS011;4282;49.986;7.938;2023-03-12T02:01:23;4.63;;;2.77;;
8490;SDS011;4282;49.986;7.938;2023-03-12T02:03:52;3.27;;;1.80;;
8490;SDS011;4282;49.986;7.938;2023-03-12T02:06:22;3.80;;;1.93;;
8490;SDS011;4282;49.986;7.938;2023-03-12T02:08:53;3.13;;;1.93;;
8490;SDS011;4282;49.986;7.938;2023-03-12T02:11:23;4.63;;;2.50;;
8490;SDS011;4282;49.986;7.938;2023-03-12T02:13:54;3.50;;;2.80;;
8490;SDS011;4282;49.986;7.938;2023-03-12T02:16:23;5.60;;;3.47;;
8490;SDS011;4282;49.986;7.938;2023-03-12T02:18:51;5.53;;;3.10;;
8490;SDS011;4282;49.986;7.938;2023-03-12T02:21:22;5.67;;;3.17;;
8490;SDS011;4282;49.986;7.938;2023-03-12T02:23:54;5.23;;;3.20;;
8490;SDS011;4282;49.986;7.938;2023-03-12T02:26:27;4.10;;;2.40;;
8490;SDS011;4282;49.986;7.938;2023-03-12T02:28:57;4.87;;;3.10;;
8490;SDS011;4282;49.986;7.938;2023-03-12T02:31:27;4.80;;;3.70;;
8490;SDS011;4282;49.986;7.938;2023-03-12T02:33:58;4.97;;;3.70;;
8490;SDS011;4282;49.986;7.938;2023-03-12T02:36:27;6.27;;;4.00;;
8490;SDS011;4282;49.986;7.938;2023-03-12T02:38:55;5.77;;;3.70;;
8490;SDS011;4282;49.986;7.938;2023-03-12T02:41:28;7.63;;;4.23;;
8490;SDS011;4282;49.986;7.938;2023-03-12T02:44:01;7.03;;;3.80;;
8490;SDS011;4282;49.986;7.938;2023-03-12T02:46:33;6.50;;;3.80;;
8490;SDS011;4282;49.986;7.938;2023-03-12T02:49:03;5.30;;;3.90;;
8490;SDS011;4282;49.986;7.938;2023-03-12T02:51:31;4.20;;;3.57;;
8490;SDS011;4282;49.986;7.938;2023-03-12T02:53:59;5.63;;;3.00;;
8490;SDS011;4282;49.986;7.938;2023-03-12T02:56:30;3.03;;;2.30;;
8490;SDS011;4282;49.986;7.938;2023-03-12T02:58:58;4.83;;;2.80;;
8490;SDS011;4282;49.986;7.938;2023-03-12T03:01:27;6.27;;;2.70;;
8490;SDS011;4282;49.986;7.938;2023-03-12T03:03:57;7.57;;;3.20;;
8490;SDS011;4282;49.986;7.938;2023-03-12T03:06:26;5.97;;;2.93;;
8490;SDS011;4282;49.986;7.938;2023-03-12T03:08:55;4.00;;;2.90;;
8490;SDS011;4282;49.986;7.938;2023-03-12T03:11:24;2.60;;;2.00;;
8490;SDS011;4282;49.986;7.938;2023-03-12T03:13:55;2.87;;;2.40;;
8490;SDS011;4282;49.986;7.938;2023-03-12T03:16:24;7.60;;;2.80;;
8490;SDS011;4282;49.986;7.938;2023-03-12T03:18:52;7.13;;;3.40;;
8490;SDS011;4282;49.986;7.938;2023-03-12T03:21:20;11.43;;;4.70;;
8490;SDS011;4282;49.986;7.938;2023-03-12T03:23:49;4.80;;;4.33;;
8490;SDS011;4282;49.986;7.938;2023-03-12T03:26:18;5.97;;;4.40;;
8490;SDS011;4282;49.986;7.938;2023-03-12T03:28:48;5.63;;;4.67;;
8490;SDS011;4282;49.986;7.938;2023-03-12T03:31:20;6.33;;;4.00;;
8490;SDS011;4282;49.986;7.938;2023-03-12T03:33:48;5.40;;;4.27;;
8490;SDS011;4282;49.986;7.938;2023-03-12T03:36:16;7.70;;;4.87;;
8490;SDS011;4282;49.986;7.938;2023-03-12T03:38:45;7.57;;;5.00;;
8490;SDS011;4282;49.986;7.938;2023-03-12T03:41:15;5.03;;;4.17;;
8490;SDS011;4282;49.986;7.938;2023-03-12T03:43:43;8.90;;;5.03;;
8490;SDS011;4282;49.986;7.938;2023-03-12T03:46:12;6.07;;;4.90;;
8490;SDS011;4282;49.986;7.938;2023-03-12T03:48:43;6.03;;;5.00;;
8490;SDS011;4282;49.986;7.938;2023-03-12T03:51:11;10.03;;;5.47;;
8490;SDS011;4282;49.986;7.938;2023-03-12T03:53:40;8.10;;;4.77;;
8490;SDS011;4282;49.986;7.938;2023-03-12T03:56:09;6.50;;;4.80;;
8490;SDS011;4282;49.986;7.938;2023-03-12T03:58:40;7.00;;;5.00;;
8490;SDS011;4282;49.986;7.938;2023-03-12T04:01:09;5.43;;;4.10;;
8490;SDS011;4282;49.986;7.938;2023-03-12T04:03:37;10.93;;;5.33;;
8490;SDS011;4282;49.986;7.938;2023-03-12T04:06:08;6.87;;;5.30;;
8490;SDS011;4282;49.986;7.938;2023-03-12T04:08:37;10.00;;;5.53;;
8490;SDS011;4282;49.986;7.938;2023-03-12T04:11:06;7.50;;;5.30;;
8490;SDS011;4282;49.986;7.938;2023-03-12T04:13:35;7.87;;;4.90;;
8490;SDS011;4282;49.986;7.938;2023-03-12T04:16:04;6.87;;;4.97;;
8490;SDS011;4282;49.986;7.938;2023-03-12T04:18:33;7.17;;;5.37;;
8490;SDS011;4282;49.986;7.938;2023-03-12T04:21:02;8.53;;;5.03;;
8490;SDS011;4282;49.986;7.938;2023-03-12T04:23:33;6.53;;;4.80;;
8490;SDS011;4282;49.986;7.938;2023-03-12T04:26:02;7.00;;;4.83;;
8490;SDS011;4282;49.986;7.938;2023-03-12T04:28:31;8.80;;;5.50;;
8490;SDS011;4282;49.986;7.938;2023-03-12T04:31:00;6.67;;;5.30;;
8490;SDS011;4282;49.986;7.938;2023-03-12T04:33:30;7.27;;;5.30;;
8490;SDS011;4282;49.986;7.938;2023-03-12T04:36:00;6.40;;;4.33;;
8490;SDS011;4282;49.986;7.938;2023-03-12T04:38:29;8.10;;;4.67;;
8490;SDS011;4282;49.986;7.938;2023-03-12T04:41:00;7.90;;;4.73;;
8490;SDS011;4282;49.986;7.938;2023-03-12T04:43:31;9.17;;;5.27;;
8490;SDS011;4282;49.986;7.938;2023-03-12T04:46:00;8.30;;;4.90;;
8490;SDS011;4282;49.986;7.938;2023-03-12T04:48:29;6.77;;;4.13;;
8490;SDS011;4282;49.986;7.938;2023-03-12T04:50:57;7.97;;;4.80;;
8490;SDS011;4282;49.986;7.938;2023-03-12T04:53:25;9.63;;;5.33;;
8490;SDS011;4282;49.986;7.938;2023-03-12T04:55:54;9.07;;;5.37;;
8490;SDS011;4282;49.986;7.938;2023-03-12T04:58:25;6.17;;;4.70;;
8490;SDS011;4282;49.986;7.938;2023-03-12T05:00:53;8.80;;;5.07;;
8490;SDS011;4282;49.986;7.938;2023-03-12T05:03:21;8.83;;;5.57;;
8490;SDS011;4282;49.986;7.938;2023-03-12T05:05:50;7.93;;;5.67;;
8490;SDS011;4282;49.986;7.938;2023-03-12T05:08:18;9.73;;;5.47;;
8490;SDS011;4282;49.986;7.938;2023-03-12T05:10:46;7.47;;;5.47;;
8490;SDS011;4282;49.986;7.938;2023-03-12T05:13:14;10.40;;;5.10;;
8490;SDS011;4282;49.986;7.938;2023-03-12T05:15:46;6.67;;;4.87;;
8490;SDS011;4282;49.986;7.938;2023-03-12T05:18:15;7.27;;;5.03;;
8490;SDS011;4282;49.986;7.938;2023-03-12T05:20:44;6.80;;;4.40;;
8490;SDS011;4282;49.986;7.938;2023-03-12T05:23:13;5.63;;;4.20;;
8490;SDS011;4282;49.986;7.938;2023-03-12T05:25:41;5.13;;;4.37;;
8490;SDS011;4282;49.986;7.938;2023-03-12T05:28:09;9.07;;;5.43;;
8490;SDS011;4282;49.986;7.938;2023-03-12T05:30:38;8.90;;;4.93;;
8490;SDS011;4282;49.986;7.938;2023-03-12T05:33:09;8.80;;;5.13;;
8490;SDS011;4282;49.986;7.938;2023-03-12T05:35:37;10.47;;;4.77;;
8490;SDS011;4282;49.986;7.938;2023-03-12T05:38:05;7.70;;;4.47;;
8490;SDS011;4282;49.986;7.938;2023-03-12T05:40:33;6.90;;;4.93;;
8490;SDS011;4282;49.986;7.938;2023-03-12T05:43:02;6.83;;;4.90;;
8490;SDS011;4282;49.986;7.938;2023-03-12T05:45:31;7.33;;;5.70;;
8490;SDS011;4282;49.986;7.938;2023-03-12T05:47:59;7.67;;;6.30;;
8490;SDS011;4282;49.986;7.938;2023-03-12T05:50:30;5.50;;;4.97;;
8490;SDS011;4282;49.986;7.938;2023-03-12T05:52:58;14.47;;;5.47;;
8490;SDS011;4282;49.986;7.938;2023-03-12T05:55:26;6.20;;;4.80;;
8490;SDS011;4282;49.986;7.938;2023-03-12T05:57:54;9.80;;;5.47;;
8490;SDS011;4282;49.986;7.938;2023-03-12T06:00:23;7.90;;;5.37;;
8490;SDS011;4282;49.986;7.938;2023-03-12T06:02:51;7.87;;;5.20;;
8490;SDS011;4282;49.986;7.938;2023-03-12T06:05:20;9.97;;;5.70;;
8490;SDS011;4282;49.986;7.938;2023-03-12T06:07:50;8.30;;;5.20;;
8490;SDS011;4282;49.986;7.938;2023-03-12T06:10:19;9.00;;;5.60;;
8490;SDS011;4282;49.986;7.938;2023-03-12T06:12:47;10.10;;;5.97;;
8490;SDS011;4282;49.986;7.938;2023-03-12T06:15:15;10.73;;;6.70;;
8490;SDS011;4282;49.986;7.938;2023-03-12T06:17:43;9.00;;;6.10;;
8490;SDS011;4282;49.986;7.938;2023-03-12T06:20:12;8.13;;;5.40;;
8490;SDS011;4282;49.986;7.938;2023-03-12T06:22:40;9.47;;;5.80;;
8490;SDS011;4282;49.986;7.938;2023-03-12T06:25:11;8.93;;;5.57;;
8490;SDS011;4282;49.986;7.938;2023-03-12T06:27:39;6.90;;;5.33;;
8490;SDS011;4282;49.986;7.938;2023-03-12T06:30:09;6.67;;;5.37;;
8490;SDS011;4282;49.986;7.938;2023-03-12T06:32:38;7.63;;;5.60;;
8490;SDS011;4282;49.986;7.938;2023-03-12T06:35:06;8.87;;;5.90;;
8490;SDS011;4282;49.986;7.938;2023-03-12T06:37:35;8.77;;;5.80;;
8490;SDS011;4282;49.986;7.938;2023-03-12T06:40:04;11.00;;;5.53;;
8490;SDS011;4282;49.986;7.938;2023-03-12T06:42:37;8.57;;;6.00;;
8490;SDS011;4282;49.986;7.938;2023-03-12T06:45:06;7.43;;;5.60;;
8490;SDS011;4282;49.986;7.938;2023-03-12T06:47:35;7.37;;;5.23;;
8490;SDS011;4282;49.986;7.938;2023-03-12T06:50:04;6.90;;;6.10;;
8490;SDS011;4282;49.986;7.938;2023-03-12T06:52:32;10.70;;;5.57;;
8490;SDS011;4282;49.986;7.938;2023-03-12T06:55:00;7.93;;;6.00;;
8490;SDS011;4282;49.986;7.938;2023-03-12T06:57:29;6.77;;;5.07;;
8490;SDS011;4282;49.986;7.938;2023-03-12T07:00:00;7.90;;;5.23;;
8490;SDS011;4282;49.986;7.938;2023-03-12T07:02:28;8.63;;;4.60;;
8490;SDS011;4282;49.986;7.938;2023-03-12T07:04:57;9.83;;;5.00;;
8490;SDS011;4282;49.986;7.938;2023-03-12T07:07:25;5.70;;;4.30;;
8490;SDS011;4282;49.986;7.938;2023-03-12T07:09:53;6.27;;;4.60;;
8490;SDS011;4282;49.986;7.938;2023-03-12T07:12:21;6.83;;;5.00;;
8490;SDS011;4282;49.986;7.938;2023-03-12T07:14:50;7.40;;;5.30;;
8490;SDS011;4282;49.986;7.938;2023-03-12T07:17:20;10.83;;;5.20;;
8490;SDS011;4282;49.986;7.938;2023-03-12T07:19:49;5.07;;;4.40;;
8490;SDS011;4282;49.986;7.938;2023-03-12T07:22:18;6.27;;;4.50;;
8490;SDS011;4282;49.986;7.938;2023-03-12T07:24:46;7.90;;;5.50;;
8490;SDS011;4282;49.986;7.938;2023-03-12T07:27:15;8.63;;;4.93;;
8490;SDS011;4282;49.986;7.938;2023-03-12T07:29:44;5.70;;;5.00;;
8490;SDS011;4282;49.986;7.938;2023-03-12T07:32:12;5.60;;;4.57;;
8490;SDS011;4282;49.986;7.938;2023-03-12T07:34:43;5.43;;;4.50;;
8490;SDS011;4282;49.986;7.938;2023-03-12T07:37:11;7.23;;;4.60;;
8490;SDS011;4282;49.986;7.938;2023-03-12T07:39:39;6.70;;;4.20;;
8490;SDS011;4282;49.986;7.938;2023-03-12T07:42:08;5.97;;;4.10;;
8490;SDS011;4282;49.986;7.938;2023-03-12T07:44:36;5.90;;;3.67;;
8490;SDS011;4282;49.986;7.938;2023-03-12T07:47:05;4.07;;;3.57;;
8490;SDS011;4282;49.986;7.938;2023-03-12T07:49:33;9.57;;;4.53;;
8490;SDS011;4282;49.986;7.938;2023-03-12T07:52:04;6.80;;;4.00;;
8490;SDS011;4282;49.986;7.938;2023-03-12T07:54:34;10.63;;;4.37;;
8490;SDS011;4282;49.986;7.938;2023-03-12T07:57:02;6.73;;;4.63;;
8490;SDS011;4282;49.986;7.938;2023-03-12T07:59:31;6.47;;;4.07;;
8490;SDS011;4282;49.986;7.938;2023-03-12T08:01:59;9.03;;;4.53;;
8490;SDS011;4282;49.986;7.938;2023-03-12T08:04:28;6.33;;;3.90;;
8490;SDS011;4282;49.986;7.938;2023-03-12T08:06:56;7.13;;;4.17;;
8490;SDS011;4282;49.986;7.938;2023-03-12T08:09:27;9.50;;;4.87;;
8490;SDS011;4282;49.986;7.938;2023-03-12T08:11:56;8.80;;;5.47;;
8490;SDS011;4282;49.986;7.938;2023-03-12T08:14:24;5.60;;;4.67;;
8490;SDS011;4282;49.986;7.938;2023-03-12T08:16:55;7.03;;;5.40;;
8490;SDS011;4282;49.986;7.938;2023-03-12T08:19:24;6.10;;;4.53;;
8490;SDS011;4282;49.986;7.938;2023-03-12T08:21:52;8.60;;;5.17;;
8490;SDS011;4282;49.986;7.938;2023-03-12T08:24:22;5.93;;;5.00;;
8490;SDS011;4282;49.986;7.938;2023-03-12T08:26:53;7.37;;;5.23;;
8490;SDS011;4282;49.986;7.938;2023-03-12T08:29:21;12.10;;;5.23;;
8490;SDS011;4282;49.986;7.938;2023-03-12T08:31:49;8.97;;;5.60;;
8490;SDS011;4282;49.986;7.938;2023-03-12T08:34:18;6.13;;;5.30;;
8490;SDS011;4282;49.986;7.938;2023-03-12T08:36:46;7.17;;;5.67;;
8490;SDS011;4282;49.986;7.938;2023-03-12T08:39:14;8.00;;;6.00;;
8490;SDS011;4282;49.986;7.938;2023-03-12T08:41:42;9.10;;;6.70;;
8490;SDS011;4282;49.986;7.938;2023-03-12T08:44:13;9.13;;;5.73;;
8490;SDS011;4282;49.986;7.938;2023-03-12T08:46:41;7.97;;;6.37;;
8490;SDS011;4282;49.986;7.938;2023-03-12T08:49:10;7.40;;;6.70;;
8490;SDS011;4282;49.986;7.938;2023-03-12T08:51:38;8.10;;;6.87;;
8490;SDS011;4282;49.986;7.938;2023-03-12T08:54:07;8.40;;;6.77;;
8490;SDS011;4282;49.986;7.938;2023-03-12T08:56:35;9.87;;;6.47;;
8490;SDS011;4282;49.986;7.938;2023-03-12T08:59:07;13.77;;;6.43;;
8490;SDS011;4282;49.986;7.938;2023-03-12T09:01:38;8.33;;;6.73;;
8490;SDS011;4282;49.986;7.938;2023-03-12T09:04:07;11.77;;;6.93;;
8490;SDS011;4282;49.986;7.938;2023-03-12T09:06:35;10.70;;;6.80;;
8490;SDS011;4282;49.986;7.938;2023-03-12T09:09:03;10.20;;;7.00;;
8490;SDS011;4282;49.986;7.938;2023-03-12T09:11:33;11.70;;;8.53;;
8490;SDS011;4282;49.986;7.938;2023-03-12T09:14:03;10.80;;;7.77;;
8490;SDS011;4282;49.986;7.938;2023-03-12T09:16:32;9.00;;;7.23;;
8490;SDS011;4282;49.986;7.938;2023-03-12T09:19:03;10.83;;;7.57;;
8490;SDS011;4282;49.986;7.938;2023-03-12T09:21:31;9.93;;;8.23;;
8490;SDS011;4282;49.986;7.938;2023-03-12T09:23:59;11.50;;;8.23;;
8490;SDS011;4282;49.986;7.938;2023-03-12T09:26:28;11.80;;;8.97;;
8490;SDS011;4282;49.986;7.938;2023-03-12T09:28:56;12.33;;;9.00;;
8490;SDS011;4282;49.986;7.938;2023-03-12T09:31:24;12.57;;;8.10;;
8490;SDS011;4282;49.986;7.938;2023-03-12T09:33:53;12.67;;;8.03;;
8490;SDS011;4282;49.986;7.938;2023-03-12T09:36:23;13.47;;;8.57;;
8490;SDS011;4282;49.986;7.938;2023-03-12T09:38:52;12.57;;;8.50;;
8490;SDS011;4282;49.986;7.938;2023-03-12T09:41:22;12.13;;;8.77;;
8490;SDS011;4282;49.986;7.938;2023-03-12T09:43:53;10.70;;;8.17;;
8490;SDS011;4282;49.986;7.938;2023-03-12T09:46:25;12.90;;;8.27;;
8490;SDS011;4282;49.986;7.938;2023-03-12T09:48:55;16.63;;;9.43;;
8490;SDS011;4282;49.986;7.938;2023-03-12T09:51:30;13.07;;;8.97;;
8490;SDS011;4282;49.986;7.938;2023-03-12T09:54:01;14.53;;;9.00;;
8490;SDS011;4282;49.986;7.938;2023-03-12T09:56:30;11.30;;;8.63;;
8490;SDS011;4282;49.986;7.938;2023-03-12T09:59:00;14.10;;;9.67;;
8490;SDS011;4282;49.986;7.938;2023-03-12T10:01:35;14.80;;;10.30;;
8490;SDS011;4282;49.986;7.938;2023-03-12T10:04:06;13.20;;;9.10;;
8490;SDS011;4282;49.986;7.938;2023-03-12T10:06:45;17.50;;;10.23;;
8490;SDS011;4282;49.986;7.938;2023-03-12T10:09:19;13.23;;;9.60;;
8490;SDS011;4282;49.986;7.938;2023-03-12T10:11:57;11.87;;;8.83;;
8490;SDS011;4282;49.986;7.938;2023-03-12T10:14:37;12.30;;;8.70;;
8490;SDS011;4282;49.986;7.938;2023-03-12T10:17:18;9.80;;;8.40;;
8490;SDS011;4282;49.986;7.938;2023-03-12T10:19:58;10.43;;;7.90;;
8490;SDS011;4282;49.986;7.938;2023-03-12T10:22:42;13.73;;;9.07;;
8490;SDS011;4282;49.986;7.938;2023-03-12T10:25:17;11.27;;;8.63;;
8490;SDS011;4282;49.986;7.938;2023-03-12T10:27:51;11.33;;;7.93;;
8490;SDS011;4282;49.986;7.938;2023-03-12T10:30:20;12.40;;;8.97;;
8490;SDS011;4282;49.986;7.938;2023-03-12T10:32:51;11.50;;;8.57;;
8490;SDS011;4282;49.986;7.938;2023-03-12T10:35:21;13.43;;;9.67;;
8490;SDS011;4282;49.986;7.938;2023-03-12T10:37:54;14.03;;;10.00;;
8490;SDS011;4282;49.986;7.938;2023-03-12T10:40:25;14.60;;;9.30;;
8490;SDS011;4282;49.986;7.938;2023-03-12T10:42:55;12.73;;;8.87;;
8490;SDS011;4282;49.986;7.938;2023-03-12T10:45:26;15.33;;;9.33;;
8490;SDS011;4282;49.986;7.938;2023-03-12T10:48:01;14.03;;;9.30;;
8490;SDS011;4282;49.986;7.938;2023-03-12T10:50:31;13.47;;;9.77;;
8490;SDS011;4282;49.986;7.938;2023-03-12T10:56:00;12.83;;;10.07;;
8490;SDS011;4282;49.986;7.938;2023-03-12T10:58:35;13.07;;;10.90;;
8490;SDS011;4282;49.986;7.938;2023-03-12T11:01:19;17.97;;;11.80;;
8490;SDS011;4282;49.986;7.938;2023-03-12T11:03:48;15.77;;;11.03;;
8490;SDS011;4282;49.986;7.938;2023-03-12T11:06:21;15.87;;;9.90;;
8490;SDS011;4282;49.986;7.938;2023-03-12T11:11:48;15.50;;;10.03;;
8490;SDS011;4282;49.986;7.938;2023-03-12T11:14:18;14.23;;;10.73;;
8490;SDS011;4282;49.986;7.938;2023-03-12T11:16:47;18.00;;;10.53;;
8490;SDS011;4282;49.986;7.938;2023-03-12T11:19:25;15.93;;;10.90;;
8490;SDS011;4282;49.986;7.938;2023-03-12T11:21:55;14.13;;;10.80;;
8490;SDS011;4282;49.986;7.938;2023-03-12T11:24:27;14.77;;;10.50;;
8490;SDS011;4282;49.986;7.938;2023-03-12T11:26:58;11.60;;;9.40;;
8490;SDS011;4282;49.986;7.938;2023-03-12T11:29:30;11.43;;;9.67;;
8490;SDS011;4282;49.986;7.938;2023-03-12T11:32:05;13.50;;;9.57;;
8490;SDS011;4282;49.986;7.938;2023-03-12T11:34:37;12.27;;;9.47;;
8490;SDS011;4282;49.986;7.938;2023-03-12T11:37:09;13.43;;;9.00;;
8490;SDS011;4282;49.986;7.938;2023-03-12T11:39:49;13.67;;;9.90;;
8490;SDS011;4282;49.986;7.938;2023-03-12T11:42:32;12.63;;;9.40;;
8490;SDS011;4282;49.986;7.938;2023-03-12T11:45:05;10.63;;;9.27;;
8490;SDS011;4282;49.986;7.938;2023-03-12T11:47:47;13.13;;;10.10;;
8490;SDS011;4282;49.986;7.938;2023-03-12T11:50:26;14.70;;;9.70;;
8490;SDS011;4282;49.986;7.938;2023-03-12T11:53:02;11.87;;;9.43;;
8490;SDS011;4282;49.986;7.938;2023-03-12T11:55:42;15.77;;;9.73;;
8490;SDS011;4282;49.986;7.938;2023-03-12T11:58:38;12.90;;;10.13;;
8490;SDS011;4282;49.986;7.938;2023-03-12T12:01:11;14.83;;;9.90;;
8490;SDS011;4282;49.986;7.938;2023-03-12T12:03:47;11.10;;;9.20;;
8490;SDS011;4282;49.986;7.938;2023-03-12T12:06:27;11.83;;;8.80;;
8490;SDS011;4282;49.986;7.938;2023-03-12T12:09:13;10.80;;;8.43;;
8490;SDS011;4282;49.986;7.938;2023-03-12T12:11:51;13.43;;;9.23;;
8490;SDS011;4282;49.986;7.938;2023-03-12T12:14:36;10.93;;;8.40;;
8490;SDS011;4282;49.986;7.938;2023-03-12T12:17:14;12.43;;;9.30;;
8490;SDS011;4282;49.986;7.938;2023-03-12T12:19:52;10.50;;;8.20;;
8490;SDS011;4282;49.986;7.938;2023-03-12T12:22:34;9.03;;;7.70;;
8490;SDS011;4282;49.986;7.938;2023-03-12T12:28:03;8.13;;;7.33;;
8490;SDS011;4282;49.986;7.938;2023-03-12T12:30:46;10.33;;;6.97;;
8490;SDS011;4282;49.986;7.938;2023-03-12T12:33:21;10.10;;;7.73;;
8490;SDS011;4282;49.986;7.938;2023-03-12T12:35:57;9.37;;;7.40;;
8490;SDS011;4282;49.986;7.938;2023-03-12T12:38:26;9.97;;;7.43;;
8490;SDS011;4282;49.986;7.938;2023-03-12T12:40:59;12.47;;;7.53;;
8490;SDS011;4282;49.986;7.938;2023-03-12T12:43:31;8.97;;;7.07;;
8490;SDS011;4282;49.986;7.938;2023-03-12T12:46:03;10.27;;;7.37;;
8490;SDS011;4282;49.986;7.938;2023-03-12T12:48:34;11.87;;;7.93;;
8490;SDS011;4282;49.986;7.938;2023-03-12T12:51:03;8.40;;;7.53;;
8490;SDS011;4282;49.986;7.938;2023-03-12T12:53:35;8.53;;;6.67;;
8490;SDS011;4282;49.986;7.938;2023-03-12T12:56:08;9.47;;;7.20;;
8490;SDS011;4282;49.986;7.938;2023-03-12T13:01:32;10.03;;;6.97;;
8490;SDS011;4282;49.986;7.938;2023-03-12T13:04:03;8.87;;;6.10;;
8490;SDS011;4282;49.986;7.938;2023-03-12T13:09:33;9.17;;;6.73;;
8490;SDS011;4282;49.986;7.938;2023-03-12T13:12:10;8.53;;;6.47;;
8490;SDS011;4282;49.986;7.938;2023-03-12T13:14:45;8.70;;;6.50;;
8490;SDS011;4282;49.986;7.938;2023-03-12T13:17:26;8.20;;;7.00;;
8490;SDS011;4282;49.986;7.938;2023-03-12T13:20:06;9.67;;;7.03;;
8490;SDS011;4282;49.986;7.938;2023-03-12T13:25:50;9.43;;;6.00;;
8490;SDS011;4282;49.986;7.938;2023-03-12T13:28:28;9.37;;;7.10;;
8490;SDS011;4282;49.986;7.938;2023-03-12T13:31:03;8.23;;;7.03;;
8490;SDS011;4282;49.986;7.938;2023-03-12T13:37:21;7.70;;;6.03;;
8490;SDS011;4282;49.986;7.938;2023-03-12T13:39:59;8.17;;;6.30;;
8490;SDS011;4282;49.986;7.938;2023-03-12T13:42:36;12.40;;;7.10;;
8490;SDS011;4282;49.986;7.938;2023-03-12T13:45:27;8.97;;;6.43;;
8490;SDS011;4282;49.986;7.938;2023-03-12T13:48:03;8.93;;;7.07;;
8490;SDS011;4282;49.986;7.938;2023-03-12T13:50:32;8.70;;;5.80;;
8490;SDS011;4282;49.986;7.938;2023-03-12T13:53:13;9.67;;;6.77;;
8490;SDS011;4282;49.986;7.938;2023-03-12T13:55:43;9.33;;;6.80;;
8490;SDS011;4282;49.986;7.938;2023-03-12T13:58:12;8.17;;;6.07;;
8490;SDS011;4282;49.986;7.938;2023-03-12T14:00:47;10.60;;;7.07;;
8490;SDS011;4282;49.986;7.938;2023-03-12T14:03:22;9.40;;;7.10;;
8490;SDS011;4282;49.986;7.938;2023-03-12T14:05:53;9.87;;;6.97;;
8490;SDS011;4282;49.986;7.938;2023-03-12T14:11:36;7.80;;;6.53;;
8490;SDS011;4282;49.986;7.938;2023-03-12T14:14:16;12.67;;;7.13;;
8490;SDS011;4282;49.986;7.938;2023-03-12T14:16:51;10.43;;;7.20;;
8490;SDS011;4282;49.986;7.938;2023-03-12T14:19:24;8.43;;;6.77;;
8490;SDS011;4282;49.986;7.938;2023-03-12T14:21:54;8.47;;;6.93;;
8490;SDS011;4282;49.986;7.938;2023-03-12T14:24:25;11.47;;;8.20;;
8490;SDS011;4282;49.986;7.938;2023-03-12T14:26:55;11.40;;;8.07;;
8490;SDS011;4282;49.986;7.938;2023-03-12T14:29:25;9.43;;;7.07;;
8490;SDS011;4282;49.986;7.938;2023-03-12T14:31:56;12.27;;;8.20;;
8490;SDS011;4282;49.986;7.938;2023-03-12T14:34:30;12.20;;;7.90;;
8490;SDS011;4282;49.986;7.938;2023-03-12T14:37:02;10.33;;;7.67;;
8490;SDS011;4282;49.986;7.938;2023-03-12T14:39:34;10.77;;;7.73;;
8490;SDS011;4282;49.986;7.938;2023-03-12T14:42:06;8.97;;;7.50;;
8490;SDS011;4282;49.986;7.938;2023-03-12T14:44:35;8.97;;;8.07;;
8490;SDS011;4282;49.986;7.938;2023-03-12T14:47:05;10.83;;;7.87;;
8490;SDS011;4282;49.986;7.938;2023-03-12T14:49:40;7.80;;;6.97;;
8490;SDS011;4282;49.986;7.938;2023-03-12T14:52:10;12.40;;;8.33;;
8490;SDS011;4282;49.986;7.938;2023-03-12T14:54:39;12.97;;;7.97;;
8490;SDS011;4282;49.986;7.938;2023-03-12T14:57:11;10.53;;;7.87;;
8490;SDS011;4282;49.986;7.938;2023-03-12T14:59:40;10.93;;;7.33;;
8490;SDS011;4282;49.986;7.938;2023-03-12T15:02:10;11.80;;;7.70;;
8490;SDS011;4282;49.986;7.938;2023-03-12T15:04:42;9.83;;;7.23;;
8490;SDS011;4282;49.986;7.938;2023-03-12T15:07:12;8.37;;;6.43;;
8490;SDS011;4282;49.986;7.938;2023-03-12T15:09:44;8.63;;;6.40;;
8490;SDS011;4282;49.986;7.938;2023-03-12T15:12:17;10.93;;;7.67;;
8490;SDS011;4282;49.986;7.938;2023-03-12T15:14:48;10.40;;;7.83;;
8490;SDS011;4282;49.986;7.938;2023-03-12T15:17:18;8.80;;;7.87;;
8490;SDS011;4282;49.986;7.938;2023-03-12T15:19:50;10.00;;;7.67;;
8490;SDS011;4282;49.986;7.938;2023-03-12T15:22:21;12.27;;;8.23;;
8490;SDS011;4282;49.986;7.938;2023-03-12T15:24:52;9.07;;;7.87;;
8490;SDS011;4282;49.986;7.938;2023-03-12T15:27:21;11.00;;;8.10;;
8490;SDS011;4282;49.986;7.938;2023-03-12T15:29:59;10.10;;;7.97;;
8490;SDS011;4282;49.986;7.938;2023-03-12T15:32:28;10.43;;;7.07;;
8490;SDS011;4282;49.986;7.938;2023-03-12T15:34:59;10.27;;;7.17;;
8490;SDS011;4282;49.986;7.938;2023-03-12T15:37:39;8.40;;;6.83;;
8490;SDS011;4282;49.986;7.938;2023-03-12T15:40:15;10.27;;;6.90;;
8490;SDS011;4282;49.986;7.938;2023-03-12T15:42:47;7.73;;;6.93;;
8490;SDS011;4282;49.986;7.938;2023-03-12T15:45:17;9.47;;;7.03;;
8490;SDS011;4282;49.986;7.938;2023-03-12T15:47:47;11.10;;;7.47;;
8490;SDS011;4282;49.986;7.938;2023-03-12T15:50:20;10.87;;;7.87;;
8490;SDS011;4282;49.986;7.938;2023-03-12T15:52:57;12.93;;;8.23;;
8490;SDS011;4282;49.986;7.938;2023-03-12T15:55:27;10.80;;;8.80;;
8490;SDS011;4282;49.986;7.938;2023-03-12T15:57:56;14.33;;;10.03;;